SCOL weather

Public forecast

Using degrees Celsius for public forecast. Weather courtesy of forecast.io.

Closest aviation weather report (METAR) to Refugio del Lago Airport

Closest report is Cañal Bajo Carlos - Hott Siebert Airport, 32.9 nm (61.0 km) W. Retrieved 2020/08/11 01:00 UTC (55 minutes ago):

SCJO 110100Z AUTO 02002KT 9999 FEW040/// SCT049/// 03/03 Q1029

Closest aviation forecast (TAF) to Refugio del Lago Airport

Forecast is more than 12 hours old.

Closest forecast is Cañal Bajo Carlos - Hott Siebert Airport, 32.9 nm (61.0 km) W. Retrieved 2020/08/10 12:33 UTC (13 hours ago):

TAF SCJO 101105Z 1012/1024 22007KT 9999 SCT035 TN02/1012Z TX09/1018Z BECMG 1013/1015 BKN035 TEMPO 1016/1020 8000 -SHRA